Time;durP1;ratioP1;P1;durP2;ratioP2;P2;SDS_P1;SDS_P2;PMS_P1;PMS_P2;Temp;Humidity;BMP_temperature;BMP_pressure;BME280_temperature;BME280_humidity;BME280_pressure;Samples;Min_cycle;Max_cycle;Signal;HPM_P1;HPM_P2
2023/11/25 00:00:10;;;;;;;0.50;0.50;;;;;;;8.41;100.00;95582.88;5106692;27;20031;-77
2023/11/25 00:02:35;;;;;;;0.60;0.60;;;;;;;8.38;100.00;95583.13;5112506;27;20509;-78
2023/11/25 00:05:01;;;;;;;0.32;0.32;;;;;;;8.26;100.00;95584.13;5106434;27;20030;-77
2023/11/25 00:07:28;;;;;;;0.30;0.30;;;;;;;8.25;100.00;95577.97;5122999;27;20414;-77
2023/11/25 00:09:54;;;;;;;0.43;0.43;;;;;;;8.30;100.00;95570.47;5107509;27;20027;-77
2023/11/25 00:12:19;;;;;;;1.65;1.27;;;;;;;8.25;100.00;95569.13;5112104;27;20034;-77
2023/11/25 00:14:45;;;;;;;0.55;0.55;;;;;;;8.25;100.00;95577.13;5123451;27;20498;-78
2023/11/25 00:17:11;;;;;;;0.47;0.47;;;;;;;8.17;100.00;95577.78;5114931;27;20509;-78
2023/11/25 00:19:37;;;;;;;0.45;0.45;;;;;;;8.07;100.00;95564.38;5101619;28;20126;-78
2023/11/25 00:22:02;;;;;;;0.25;0.25;;;;;;;8.04;100.00;95564.66;5122360;27;20410;-78
2023/11/25 00:24:28;;;;;;;0.10;0.10;;;;;;;7.94;100.00;95558.38;5106188;27;20031;-78
2023/11/25 00:26:53;;;;;;;0.30;0.30;;;;;;;7.88;100.00;95553.59;5103182;27;20586;-78
2023/11/25 00:29:19;;;;;;;0.15;0.15;;;;;;;7.89;100.00;95554.44;5124196;27;20123;-78
2023/11/25 00:31:51;;;;;;;0.20;0.20;;;;;;;7.81;100.00;95554.22;5114038;27;20344;-78
2023/11/25 00:34:17;;;;;;;0.20;0.20;;;;;;;7.63;100.00;95548.59;5103069;28;20023;-76
2023/11/25 00:36:42;;;;;;;1.23;0.75;;;;;;;7.70;100.00;95554.25;5107414;27;20028;-77
2023/11/25 00:39:08;;;;;;;0.10;0.10;;;;;;;7.76;100.00;95556.41;5125711;27;20137;-77
2023/11/25 00:41:38;;;;;;;0.10;0.10;;;;;;;7.73;100.00;95544.22;5113665;27;20051;-77
2023/11/25 00:44:03;;;;;;;0.38;0.38;;;;;;;7.80;100.00;95531.25;5129715;27;20053;-76
2023/11/25 00:46:29;;;;;;;0.20;0.20;;;;;;;7.89;100.00;95534.00;5123128;27;20098;-77
2023/11/25 00:48:55;;;;;;;0.77;0.75;;;;;;;7.90;100.00;95551.66;5105614;27;20027;-78
2023/11/25 00:51:20;;;;;;;0.28;0.28;;;;;;;7.77;100.00;95548.31;5131427;27;20105;-78
2023/11/25 00:53:46;;;;;;;1.58;0.95;;;;;;;7.71;100.00;95524.88;5104814;27;20426;-77
2023/11/25 00:56:11;;;;;;;0.70;0.70;;;;;;;7.67;100.00;95527.91;5108346;28;20024;-77
2023/11/25 00:58:37;;;;;;;0.20;0.20;;;;;;;7.68;100.00;95521.63;5100023;27;20030;-77
2023/11/25 01:01:04;;;;;;;0.10;0.10;;;;;;;7.59;100.00;95516.09;5125088;27;20023;-77
2023/11/25 01:03:29;;;;;;;0.13;0.13;;;;;;;7.51;100.00;95520.34;5108969;28;20032;-78
2023/11/25 01:05:55;;;;;;;0.20;0.20;;;;;;;7.43;100.00;95514.81;5127559;27;20042;-78
2023/11/25 01:08:25;;;;;;;0.20;0.20;;;;;;;7.39;100.00;95518.69;5110471;28;20027;-78
2023/11/25 01:10:51;;;;;;;0.40;0.40;;;;;;;7.39;100.00;95508.06;5126863;27;20031;-78
2023/11/25 01:13:17;;;;;;;7.28;0.73;;;;;;;7.43;100.00;95514.81;5113696;27;20470;-77
2023/11/25 01:15:43;;;;;;;2.08;0.47;;;;;;;7.35;100.00;95509.31;5122294;27;20119;-77
2023/11/25 01:18:09;;;;;;;0.10;0.10;;;;;;;7.33;100.00;95497.94;5103285;28;20084;-77
2023/11/25 01:20:35;;;;;;;0.30;0.30;;;;;;;7.43;100.00;95488.22;5109824;27;20554;-77
2023/11/25 01:23:00;;;;;;;0.10;0.10;;;;;;;7.52;100.00;95493.63;5107744;27;20031;-78
2023/11/25 01:25:26;;;;;;;0.10;0.10;;;;;;;7.43;100.00;95498.88;5131877;27;20083;-77
2023/11/25 01:27:54;;;;;;;0.10;0.10;;;;;;;7.29;100.00;95483.22;5113221;28;20044;-77
2023/11/25 01:30:20;;;;;;;0.25;0.17;;;;;;;7.18;100.00;95483.22;5099477;28;20546;-77
2023/11/25 01:32:45;;;;;;;0.10;0.10;;;;;;;7.22;100.00;95495.31;5110495;27;20402;-78
2023/11/25 01:35:11;;;;;;;0.10;0.10;;;;;;;7.38;100.00;95499.22;5104547;28;20023;-78
2023/11/25 01:37:37;;;;;;;0.05;0.05;;;;;;;7.39;100.00;95492.09;5130340;27;20023;-78
2023/11/25 01:40:11;;;;;;;1.65;0.40;;;;;;;7.20;100.00;95492.75;5101735;27;20023;-78
2023/11/25 01:42:37;;;;;;;0.08;0.08;;;;;;;7.19;100.00;95501.72;5108400;28;20033;-77
2023/11/25 01:45:03;;;;;;;0.20;0.20;;;;;;;7.20;100.00;95494.59;5113137;28;20114;-77
2023/11/25 01:47:30;;;;;;;0.20;0.20;;;;;;;7.15;100.00;95499.44;5098411;28;20525;-77
2023/11/25 01:49:56;;;;;;;0.85;0.70;;;;;;;7.14;100.00;95500.44;5119838;28;20059;-77
2023/11/25 01:52:22;;;;;;;0.10;0.10;;;;;;;7.12;100.00;95483.72;5112845;28;20731;-78
2023/11/25 01:54:48;;;;;;;0.10;0.10;;;;;;;7.22;100.00;95474.91;5101298;28;20077;-78
2023/11/25 01:57:15;;;;;;;0.32;0.32;;;;;;;7.27;100.00;95471.84;5102221;28;20038;-78
2023/11/25 01:59:41;;;;;;;0.10;0.10;;;;;;;7.29;100.00;95475.25;5102202;28;20500;-78
2023/11/25 02:02:07;;;;;;;0.10;0.10;;;;;;;7.23;100.00;95465.13;5103655;28;20039;-78
2023/11/25 02:04:33;;;;;;;0.10;0.10;;;;;;;7.07;100.00;95458.38;5099931;28;20035;-77
2023/11/25 02:07:00;;;;;;;0.05;0.05;;;;;;;7.03;100.00;95454.28;5106880;27;20031;-76
2023/11/25 02:09:25;;;;;;;0.20;0.20;;;;;;;7.13;100.00;95454.38;5111463;27;20092;-76
2023/11/25 02:11:58;;;;;;;0.57;0.13;;;;;;;7.09;100.00;95459.09;5131331;27;20455;-77
2023/11/25 02:14:25;;;;;;;0.22;0.20;;;;;;;7.04;100.00;95453.31;5131338;27;20153;-76
2023/11/25 02:16:51;;;;;;;0.10;0.10;;;;;;;6.73;100.00;95448.81;5122996;27;20035;-76
2023/11/25 02:19:21;;;;;;;0.13;0.13;;;;;;;6.64;100.00;95444.25;5102792;27;20099;-77
2023/11/25 02:21:47;;;;;;;0.10;0.10;;;;;;;6.63;100.00;95439.88;5103531;28;20123;-77
2023/11/25 02:24:13;;;;;;;0.00;0.00;;;;;;;6.64;100.00;95436.28;5108034;27;20047;-77
2023/11/25 02:26:39;;;;;;;0.13;0.13;;;;;;;6.56;100.00;95428.06;5128163;27;20543;-77
2023/11/25 02:29:05;;;;;;;0.10;0.10;;;;;;;6.54;100.00;95432.66;5128165;27;20110;-77
2023/11/25 02:31:32;;;;;;;0.10;0.10;;;;;;;6.58;100.00;95433.25;5130992;27;20152;-77
2023/11/25 02:33:58;;;;;;;0.57;0.57;;;;;;;6.61;100.00;95433.88;5116818;27;20529;-77
2023/11/25 02:36:23;;;;;;;0.17;0.17;;;;;;;6.59;100.00;95433.13;5128093;27;20450;-78
2023/11/25 02:38:49;;;;;;;0.10;0.10;;;;;;;6.62;100.00;95440.84;5108200;27;20046;-77
2023/11/25 02:41:15;;;;;;;0.10;0.10;;;;;;;6.59;100.00;95446.41;5124723;27;20055;-78
2023/11/25 02:43:41;;;;;;;0.10;0.10;;;;;;;6.58;100.00;95425.28;5108170;27;20031;-77
2023/11/25 02:46:08;;;;;;;0.10;0.10;;;;;;;6.61;100.00;95430.34;5125351;27;20036;-77
2023/11/25 02:48:35;;;;;;;0.10;0.10;;;;;;;6.49;100.00;95430.34;5116335;27;20088;-77
2023/11/25 02:51:01;;;;;;;0.25;0.25;;;;;;;6.24;100.00;95427.13;5108022;27;20562;-77
2023/11/25 02:53:26;;;;;;;0.10;0.10;;;;;;;6.13;100.00;95437.72;5106374;28;20043;-76
2023/11/25 02:55:52;;;;;;;0.25;0.25;;;;;;;6.18;100.00;95435.56;5129247;27;20038;-76
2023/11/25 02:58:18;;;;;;;0.15;0.15;;;;;;;6.12;100.00;95441.38;5130559;27;20609;-75
2023/11/25 03:00:43;;;;;;;0.10;0.10;;;;;;;6.10;100.00;95446.78;5126859;27;20646;-77
2023/11/25 03:03:13;;;;;;;0.13;0.13;;;;;;;5.96;100.00;95441.72;5099684;27;20370;-76
2023/11/25 03:05:45;;;;;;;0.10;0.10;;;;;;;6.00;100.00;95446.66;5117694;27;20031;-77
2023/11/25 03:08:12;;;;;;;0.10;0.10;;;;;;;5.99;100.00;95437.00;5111833;27;20551;-76
2023/11/25 03:10:41;;;;;;;0.68;0.57;;;;;;;6.00;100.00;95414.81;5133045;27;20478;-75
2023/11/25 03:13:11;;;;;;;0.32;0.32;;;;;;;6.11;100.00;95426.41;5107486;27;20027;-78
2023/11/25 03:15:37;;;;;;;0.30;0.20;;;;;;;6.14;100.00;95436.78;5110238;28;20039;-76
2023/11/25 03:18:05;;;;;;;0.10;0.10;;;;;;;6.05;100.00;95430.38;5123837;27;20028;-77
2023/11/25 03:20:32;;;;;;;0.00;0.00;;;;;;;6.03;100.00;95420.84;5110432;27;20027;-77
2023/11/25 03:22:58;;;;;;;0.00;0.00;;;;;;;5.94;100.00;95409.13;5112965;27;20106;-76
2023/11/25 03:25:27;;;;;;;5.47;1.75;;;;;;;5.99;100.00;95429.06;5107363;27;20134;-77
2023/11/25 03:27:53;;;;;;;0.47;0.47;;;;;;;5.48;100.00;95417.09;5110397;27;20042;-76
2023/11/25 03:30:19;;;;;;;0.10;0.10;;;;;;;5.55;100.00;95420.13;5102623;28;20542;-77
2023/11/25 03:32:45;;;;;;;0.10;0.10;;;;;;;5.52;100.00;95407.13;5100429;27;20111;-76
2023/11/25 03:35:10;;;;;;;0.30;0.30;;;;;;;5.56;100.00;95417.38;5115603;27;20035;-77
2023/11/25 03:37:36;;;;;;;1.70;0.75;;;;;;;5.61;100.00;95417.88;5106932;27;20506;-77
2023/11/25 03:40:04;;;;;;;10.00;4.78;;;;;;;5.48;100.00;95417.09;5132622;27;20031;-77
2023/11/25 03:42:30;;;;;;;9.45;5.75;;;;;;;5.58;100.00;95418.09;5126571;27;20027;-76
2023/11/25 03:44:55;;;;;;;2.40;1.75;;;;;;;5.55;100.00;95417.47;5117409;27;20027;-76
2023/11/25 03:47:21;;;;;;;3.00;1.70;;;;;;;5.54;100.00;95411.34;5104709;27;20034;-77
2023/11/25 03:49:46;;;;;;;0.55;0.55;;;;;;;5.54;100.00;95410.50;5109357;27;20091;-76
2023/11/25 03:52:12;;;;;;;0.75;0.25;;;;;;;5.45;100.00;95406.72;5121034;27;20024;-76
2023/11/25 03:54:38;;;;;;;5.82;3.70;;;;;;;5.54;100.00;95410.50;5100980;27;20027;-77
2023/11/25 03:57:04;;;;;;;1.98;1.58;;;;;;;5.56;100.00;95408.59;5112188;27;20491;-76
2023/11/25 03:59:32;;;;;;;2.17;1.40;;;;;;;5.39;100.00;95397.44;5100869;27;20471;-77
2023/11/25 04:01:58;;;;;;;1.45;0.85;;;;;;;5.36;100.00;95386.22;5114982;27;20015;-77
2023/11/25 04:04:26;;;;;;;0.98;0.82;;;;;;;5.24;100.00;95392.47;5109395;27;20053;-75
2023/11/25 04:06:54;;;;;;;0.15;0.15;;;;;;;5.01;100.00;95385.41;5111910;27;20412;-78
2023/11/25 04:09:20;;;;;;;0.10;0.10;;;;;;;4.93;100.00;95394.78;5133254;27;20027;-77
2023/11/25 04:11:46;;;;;;;0.10;0.10;;;;;;;4.80;100.00;95393.97;5108920;27;20030;-75
2023/11/25 04:14:11;;;;;;;0.10;0.10;;;;;;;4.51;100.00;95386.50;5111867;27;20034;-76
2023/11/25 04:16:37;;;;;;;0.10;0.10;;;;;;;4.26;100.00;95392.72;5109073;27;20049;-77
2023/11/25 04:19:03;;;;;;;0.10;0.10;;;;;;;4.17;100.00;95398.66;5110892;28;20026;-78
2023/11/25 04:21:29;;;;;;;0.10;0.10;;;;;;;4.07;100.00;95392.31;5119541;27;20041;-76
2023/11/25 04:23:57;;;;;;;0.20;0.20;;;;;;;4.05;100.00;95402.19;5104811;27;20088;-76
2023/11/25 04:26:24;;;;;;;0.28;0.28;;;;;;;4.01;100.00;95398.06;5114984;27;20027;-76
2023/11/25 04:28:50;;;;;;;0.40;0.40;;;;;;;3.86;100.00;95410.56;5122898;27;20028;-77
2023/11/25 04:31:16;;;;;;;0.20;0.20;;;;;;;3.75;100.00;95406.00;5114430;27;20035;-77
2023/11/25 04:33:41;;;;;;;0.15;0.15;;;;;;;3.71;100.00;95409.84;5114150;27;20347;-76
2023/11/25 04:36:09;;;;;;;0.10;0.10;;;;;;;3.67;100.00;95415.44;5108846;27;20031;-77
2023/11/25 04:38:38;;;;;;;0.20;0.20;;;;;;;3.48;100.00;95409.72;5123171;27;20027;-77
2023/11/25 04:41:06;;;;;;;0.40;0.40;;;;;;;3.51;100.00;95420.91;5111472;27;20466;-76
2023/11/25 04:43:32;;;;;;;0.10;0.10;;;;;;;3.56;100.00;95424.09;5114507;27;20505;-76
2023/11/25 04:45:59;;;;;;;3.42;0.95;;;;;;;3.48;100.00;95412.34;5105502;27;20064;-76
2023/11/25 04:48:24;;;;;;;0.17;0.17;;;;;;;3.48;100.00;95415.00;5105833;28;20462;-78
2023/11/25 04:50:50;;;;;;;0.68;0.25;;;;;;;3.41;100.00;95422.50;5120244;27;20069;-76
2023/11/25 04:53:16;;;;;;;0.10;0.10;;;;;;;3.29;100.00;95426.00;5126955;27;20027;-76
2023/11/25 04:55:41;;;;;;;0.10;0.10;;;;;;;3.16;100.00;95410.13;5119115;27;20031;-77
2023/11/25 04:58:07;;;;;;;0.30;0.30;;;;;;;3.20;100.00;95430.06;5113702;27;20051;-77
2023/11/25 05:00:32;;;;;;;0.25;0.25;;;;;;;3.18;100.00;95439.06;5125392;27;20167;-77
2023/11/25 05:02:58;;;;;;;0.10;0.10;;;;;;;3.07;100.00;95428.38;5111829;27;20058;-77
2023/11/25 05:05:23;;;;;;;0.20;0.20;;;;;;;2.94;100.00;95417.78;5123170;27;20045;-77
2023/11/25 05:07:49;;;;;;;0.10;0.10;;;;;;;2.90;100.00;95431.25;5107516;27;20035;-77
2023/11/25 05:10:16;;;;;;;0.10;0.10;;;;;;;2.68;100.00;95411.56;5104257;28;20130;-76
2023/11/25 05:12:44;;;;;;;0.13;0.13;;;;;;;2.76;100.00;95442.75;5100875;27;20047;-77
2023/11/25 05:15:10;;;;;;;0.10;0.10;;;;;;;2.70;100.00;95444.00;5105171;27;20039;-78
2023/11/25 05:17:36;;;;;;;0.20;0.20;;;;;;;2.67;100.00;95433.63;5113748;27;20391;-76
2023/11/25 05:20:05;;;;;;;0.10;0.10;;;;;;;2.65;100.00;95445.22;5103342;28;20074;-78
2023/11/25 05:22:30;;;;;;;0.28;0.28;;;;;;;2.66;100.00;95439.00;5115569;27;20019;-77
2023/11/25 05:24:56;;;;;;;0.43;0.30;;;;;;;2.53;100.00;95415.19;5119233;27;20019;-78
2023/11/25 05:27:22;;;;;;;0.60;0.60;;;;;;;2.48;100.00;95421.72;5113553;27;20023;-78
2023/11/25 05:29:49;;;;;;;0.20;0.20;;;;;;;2.43;100.00;95445.75;5119980;27;20019;-77
2023/11/25 05:32:15;;;;;;;0.43;0.43;;;;;;;2.38;100.00;95442.56;5107079;27;20027;-72
2023/11/25 05:34:40;;;;;;;0.20;0.20;;;;;;;2.44;100.00;95442.19;5099325;27;20097;-77
2023/11/25 05:37:08;;;;;;;0.30;0.30;;;;;;;2.40;100.00;95432.75;5116325;27;20153;-77
2023/11/25 05:39:35;;;;;;;0.20;0.20;;;;;;;2.35;100.00;95441.91;5113022;27;20339;-76
2023/11/25 05:42:02;;;;;;;0.13;0.13;;;;;;;2.29;100.00;95422.06;5118573;27;20563;-78
2023/11/25 05:44:29;;;;;;;0.28;0.28;;;;;;;2.32;100.00;95440.31;5093324;28;20092;-76
2023/11/25 05:46:55;;;;;;;0.55;0.55;;;;;;;2.30;100.00;95441.38;5093518;28;20111;-76
2023/11/25 05:49:22;;;;;;;0.35;0.35;;;;;;;2.30;100.00;95439.59;5092909;28;20024;-76
2023/11/25 05:51:47;;;;;;;1.95;1.08;;;;;;;2.34;100.00;95435.78;5117343;28;20030;-77
2023/11/25 05:54:13;;;;;;;0.50;0.50;;;;;;;2.36;100.00;95439.19;5113325;28;20039;-77
2023/11/25 05:56:48;;;;;;;0.52;0.52;;;;;;;2.26;100.00;95427.53;5113478;28;20031;-76
2023/11/25 05:59:16;;;;;;;0.20;0.20;;;;;;;2.37;100.00;95445.31;5108494;28;20380;-77
2023/11/25 06:01:42;;;;;;;0.28;0.28;;;;;;;2.31;100.00;95440.44;5110086;28;20411;-76
2023/11/25 06:04:08;;;;;;;0.63;0.63;;;;;;;2.40;100.00;95445.13;5092804;28;20031;-77
2023/11/25 06:06:34;;;;;;;0.38;0.38;;;;;;;2.39;100.00;95444.28;5110108;28;20095;-75
2023/11/25 06:08:59;;;;;;;0.10;0.10;;;;;;;2.35;100.00;95448.03;5121363;28;20034;-77
2023/11/25 06:11:26;;;;;;;0.20;0.20;;;;;;;2.25;100.00;95461.88;5113385;28;20023;-77
2023/11/25 06:13:56;;;;;;;4.10;1.13;;;;;;;2.24;100.00;95463.69;5113395;28;20068;-76
2023/11/25 06:16:22;;;;;;;0.45;0.45;;;;;;;2.27;100.00;95458.25;5130656;28;20103;-77
2023/11/25 06:18:48;;;;;;;1.17;0.77;;;;;;;2.29;100.00;95472.16;5113493;28;20556;-76
2023/11/25 06:21:17;;;;;;;1.55;1.40;;;;;;;2.31;100.00;95483.44;5113308;28;20060;-77
2023/11/25 06:23:43;;;;;;;1.15;1.15;;;;;;;2.36;100.00;95470.84;5113328;28;20023;-77
2023/11/25 06:26:12;;;;;;;0.60;0.60;;;;;;;2.30;100.00;95481.78;5118456;28;20398;-76
2023/11/25 06:28:44;;;;;;;0.82;0.82;;;;;;;2.26;100.00;95492.59;5092847;28;20044;-77
2023/11/25 06:31:11;;;;;;;1.42;1.33;;;;;;;2.26;100.00;95495.22;5092765;28;20509;-78
2023/11/25 06:33:38;;;;;;;2.15;1.35;;;;;;;2.25;100.00;95502.28;5109846;28;20422;-77
2023/11/25 06:36:05;;;;;;;1.90;1.75;;;;;;;2.30;100.00;95494.97;5092819;28;20092;-77
2023/11/25 06:38:30;;;;;;;0.98;0.98;;;;;;;2.31;100.00;95496.63;5092613;28;20128;-77
2023/11/25 06:40:56;;;;;;;3.72;2.97;;;;;;;2.25;100.00;95489.09;5111044;28;20630;-77
2023/11/25 06:43:22;;;;;;;0.95;0.95;;;;;;;2.35;100.00;95500.78;5092528;28;20103;-77
2023/11/25 06:45:48;;;;;;;6.50;2.25;;;;;;;2.35;100.00;95498.16;5111070;28;20050;-77
2023/11/25 06:48:20;;;;;;;1.02;1.02;;;;;;;2.36;100.00;95502.50;5092870;28;20047;-77
2023/11/25 06:50:47;;;;;;;19.38;2.90;;;;;;;2.34;100.00;95509.63;5093211;28;20020;-76
2023/11/25 06:53:13;;;;;;;2.47;2.33;;;;;;;2.28;100.00;95512.66;5096354;28;20024;-76
2023/11/25 06:55:41;;;;;;;8.73;6.05;;;;;;;2.22;100.00;95513.03;5108487;27;20031;-76
2023/11/25 06:58:11;;;;;;;6.30;2.25;;;;;;;2.19;100.00;95515.84;5117014;27;20027;-76
2023/11/25 07:00:40;;;;;;;1.38;1.30;;;;;;;2.10;100.00;95535.72;5116987;27;20059;-76
2023/11/25 07:03:08;;;;;;;4.78;3.38;;;;;;;2.03;100.00;95518.59;5133802;27;20380;-76
2023/11/25 07:05:34;;;;;;;5.85;4.32;;;;;;;2.10;100.00;95517.28;5116527;27;20557;-74
2023/11/25 07:08:01;;;;;;;2.38;1.83;;;;;;;2.15;100.00;95517.00;5100935;27;20115;-74
2023/11/25 07:10:32;;;;;;;2.60;1.08;;;;;;;2.05;100.00;95522.00;5126936;27;20121;-74
2023/11/25 07:13:02;;;;;;;3.78;2.05;;;;;;;2.02;100.00;95516.06;5125132;27;20035;-74
2023/11/25 07:15:29;;;;;;;3.45;3.22;;;;;;;2.13;100.00;95516.25;5109402;27;20079;-74
2023/11/25 07:17:55;;;;;;;1.42;1.35;;;;;;;2.26;100.00;95522.47;5118577;27;20040;-73
2023/11/25 07:20:21;;;;;;;3.60;2.38;;;;;;;2.22;100.00;95523.56;5107080;27;20106;-75
2023/11/25 07:22:47;;;;;;;10.23;2.75;;;;;;;2.38;100.00;95520.84;5123327;27;20102;-75
2023/11/25 07:25:13;;;;;;;5.78;4.13;;;;;;;2.31;100.00;95493.19;5095264;28;20028;-76
2023/11/25 07:27:47;;;;;;;4.55;3.45;;;;;;;2.24;100.00;95494.50;5112347;28;20028;-76
2023/11/25 07:30:14;;;;;;;4.20;2.22;;;;;;;2.17;100.00;95494.03;5096132;28;20028;-76
2023/11/25 07:32:40;;;;;;;3.72;2.80;;;;;;;2.16;100.00;95489.69;5095388;28;20114;-76
2023/11/25 07:35:07;;;;;;;3.35;2.20;;;;;;;2.05;100.00;95479.81;5095714;28;20023;-75
2023/11/25 07:37:35;;;;;;;9.93;4.68;;;;;;;2.07;100.00;95485.84;5095545;28;20031;-76
2023/11/25 07:40:09;;;;;;;10.77;6.32;;;;;;;2.14;100.00;95478.41;5112443;28;20031;-77
2023/11/25 07:42:35;;;;;;;10.40;1.55;;;;;;;2.26;100.00;95468.88;5095922;28;20031;-77
2023/11/25 07:45:01;;;;;;;16.30;6.20;;;;;;;2.32;100.00;95476.38;5095429;28;20508;-76
2023/11/25 07:47:27;;;;;;;15.65;6.55;;;;;;;2.47;100.00;95462.22;5112362;28;20023;-77
2023/11/25 07:49:52;;;;;;;7.00;2.78;;;;;;;2.54;100.00;95472.31;5113439;28;20051;-76
2023/11/25 07:52:18;;;;;;;2.53;1.80;;;;;;;2.57;100.00;95474.75;5095317;28;20478;-76
2023/11/25 07:54:43;;;;;;;1.35;1.25;;;;;;;2.62;100.00;95477.06;5094938;28;20024;-76
2023/11/25 07:57:09;;;;;;;28.58;1.83;;;;;;;2.67;100.00;95467.94;5112353;28;20096;-76
2023/11/25 07:59:35;;;;;;;0.35;0.35;;;;;;;2.69;100.00;95473.97;5095024;28;20483;-76
2023/11/25 08:02:01;;;;;;;2.30;2.10;;;;;;;2.67;100.00;95475.84;5098696;27;20409;-76
2023/11/25 08:04:26;;;;;;;2.10;1.98;;;;;;;2.70;100.00;95457.19;5132494;27;20062;-76
2023/11/25 08:06:52;;;;;;;2.35;2.15;;;;;;;2.87;100.00;95471.06;5133676;27;20055;-76
2023/11/25 08:09:20;;;;;;;5.63;2.88;;;;;;;2.90;100.00;95476.13;5132354;27;20031;-71
2023/11/25 08:11:46;;;;;;;2.80;2.00;;;;;;;2.84;100.00;95466.84;5130818;27;20037;-72
2023/11/25 08:14:13;;;;;;;16.70;2.72;;;;;;;2.86;100.00;95454.38;5132777;27;20031;-73
2023/11/25 08:16:39;;;;;;;5.45;2.80;;;;;;;2.86;100.00;95445.63;5122328;27;20015;-72
2023/11/25 08:19:04;;;;;;;7.45;4.88;;;;;;;2.93;100.00;95457.47;5101635;28;20135;-73
2023/11/25 08:21:30;;;;;;;3.97;3.63;;;;;;;2.87;100.00;95463.13;5130291;27;20026;-73
2023/11/25 08:23:56;;;;;;;7.68;3.60;;;;;;;2.96;100.00;95457.25;5093581;28;20023;-77
2023/11/25 08:26:23;;;;;;;4.00;2.25;;;;;;;3.02;100.00;95452.44;5128277;27;20027;-72
2023/11/25 08:28:49;;;;;;;1.27;0.93;;;;;;;3.11;100.00;95456.25;5099423;27;20027;-72
2023/11/25 08:31:16;;;;;;;1.58;1.48;;;;;;;3.26;100.00;95457.91;5131503;27;20019;-72
2023/11/25 08:33:42;;;;;;;3.15;1.75;;;;;;;3.31;100.00;95458.41;5114212;27;20044;-72
2023/11/25 08:36:10;;;;;;;1.88;1.42;;;;;;;3.10;100.00;95431.66;5129193;27;20379;-72
2023/11/25 08:38:35;;;;;;;0.55;0.55;;;;;;;3.12;100.00;95439.47;5131664;27;20084;-73
2023/11/25 08:41:02;;;;;;;1.55;1.23;;;;;;;3.09;100.00;95424.69;5131985;27;20047;-72
2023/11/25 08:43:29;;;;;;;1.38;1.20;;;;;;;3.20;100.00;95431.88;5106014;27;20038;-73
2023/11/25 08:45:55;;;;;;;0.85;0.85;;;;;;;3.04;100.00;95440.00;5106381;27;20023;-73
2023/11/25 08:48:23;;;;;;;1.98;1.40;;;;;;;3.17;100.00;95461.13;5098550;28;20035;-73
2023/11/25 08:50:49;;;;;;;1.23;1.13;;;;;;;3.07;100.00;95434.50;5103572;27;20062;-73
2023/11/25 08:53:16;;;;;;;0.80;0.73;;;;;;;3.03;100.00;95445.34;5106273;28;20556;-73
2023/11/25 08:55:41;;;;;;;1.08;1.08;;;;;;;2.98;100.00;95450.09;5114587;27;20043;-74
2023/11/25 08:58:07;;;;;;;2.15;1.38;;;;;;;3.08;100.00;95472.28;5126829;27;20058;-74
2023/11/25 09:00:33;;;;;;;0.55;0.55;;;;;;;3.17;100.00;95469.03;5113171;27;20023;-74
2023/11/25 09:03:00;;;;;;;1.10;1.05;;;;;;;2.99;100.00;95428.88;5131378;27;20494;-73
2023/11/25 09:05:28;;;;;;;1.70;1.42;;;;;;;3.06;100.00;95439.88;5113677;27;20110;-72
2023/11/25 09:07:55;;;;;;;1.50;1.30;;;;;;;2.96;100.00;95436.13;5114439;27;20053;-73
2023/11/25 09:10:22;;;;;;;2.75;1.88;;;;;;;2.93;100.00;95433.69;5130531;27;20027;-73
2023/11/25 09:12:51;;;;;;;1.88;1.70;;;;;;;3.07;100.00;95446.84;5122288;27;20429;-73
2023/11/25 09:15:16;;;;;;;5.40;4.00;;;;;;;3.07;100.00;95444.22;5129854;27;20394;-73
2023/11/25 09:17:42;;;;;;;1.35;1.25;;;;;;;3.05;100.00;95449.59;5130557;27;20023;-72
2023/11/25 09:20:16;;;;;;;1.25;1.17;;;;;;;2.96;100.00;95421.16;5120144;27;20031;-73
2023/11/25 09:22:42;;;;;;;0.47;0.47;;;;;;;3.07;100.00;95433.66;5120573;27;20123;-72
2023/11/25 09:25:12;;;;;;;1.30;1.20;;;;;;;3.21;100.00;95446.78;5123956;27;20029;-72
2023/11/25 09:27:41;;;;;;;4.55;1.48;;;;;;;3.23;100.00;95432.50;5127367;27;20026;-73
2023/11/25 09:30:11;;;;;;;2.35;1.35;;;;;;;3.26;100.00;95439.41;5131410;27;20022;-72
2023/11/25 09:32:37;;;;;;;2.45;2.25;;;;;;;3.29;100.00;95424.16;5118515;27;20031;-73
2023/11/25 09:35:04;;;;;;;1.95;1.48;;;;;;;3.37;100.00;95426.31;5110246;27;20474;-73
2023/11/25 09:37:30;;;;;;;4.88;1.67;;;;;;;3.27;100.00;95398.81;5126629;27;20051;-72
2023/11/25 09:39:56;;;;;;;0.98;0.95;;;;;;;3.40;100.00;95407.59;5117270;28;20057;-72
2023/11/25 09:42:21;;;;;;;2.92;1.65;;;;;;;3.41;100.00;95397.88;5129865;27;20039;-73
2023/11/25 09:44:49;;;;;;;1.65;1.50;;;;;;;3.01;100.00;95390.03;5123070;27;20499;-73
2023/11/25 09:47:15;;;;;;;2.00;1.38;;;;;;;2.96;100.00;95396.53;5123692;27;20055;-72
2023/11/25 09:49:40;;;;;;;0.90;0.90;;;;;;;2.90;100.00;95379.31;5112702;28;20460;-72
2023/11/25 09:52:09;;;;;;;3.13;1.75;;;;;;;3.08;100.00;95395.72;5097128;28;20028;-73
2023/11/25 09:54:35;;;;;;;0.98;0.98;;;;;;;3.19;100.00;95402.00;5102988;28;20038;-72
2023/11/25 09:57:02;;;;;;;1.00;0.93;;;;;;;3.20;100.00;95379.91;5097529;28;20460;-73
2023/11/25 09:59:30;;;;;;;0.90;0.55;;;;;;;3.34;100.00;95381.59;5110043;28;20061;-73
2023/11/25 10:01:59;;;;;;;1.50;1.40;;;;;;;3.43;100.00;95399.47;5105495;28;20092;-72
2023/11/25 10:04:28;;;;;;;1.67;0.98;;;;;;;3.38;100.00;95396.31;5102755;28;20031;-73
2023/11/25 10:06:54;;;;;;;2.22;2.03;;;;;;;3.18;100.00;95370.38;5115674;28;20024;-73
2023/11/25 10:09:21;;;;;;;2.88;2.45;;;;;;;2.99;100.00;95356.72;5119159;28;20527;-73
2023/11/25 10:11:47;;;;;;;6.82;4.38;;;;;;;2.97;100.00;95383.25;5105217;28;20056;-73
2023/11/25 10:14:13;;;;;;;2.78;2.20;;;;;;;2.96;100.00;95388.63;5103692;28;20027;-72
2023/11/25 10:16:44;;;;;;;1.67;1.42;;;;;;;2.99;100.00;95385.78;5117982;28;20050;-72
2023/11/25 10:19:23;;;;;;;3.55;2.83;;;;;;;3.02;100.00;95367.09;5093568;28;20028;-73
2023/11/25 10:21:50;;;;;;;2.60;2.40;;;;;;;2.94;100.00;95354.41;5119202;28;20482;-73
2023/11/25 10:24:17;;;;;;;5.45;3.05;;;;;;;3.16;100.00;95367.88;5107972;28;20118;-71
2023/11/25 10:26:43;;;;;;;2.97;2.38;;;;;;;3.21;100.00;95375.47;5105682;28;20107;-73
2023/11/25 10:29:12;;;;;;;2.47;2.20;;;;;;;3.22;100.00;95371.88;5121039;27;20402;-73
2023/11/25 10:31:42;;;;;;;7.85;3.33;;;;;;;3.24;100.00;95356.75;5106805;28;20027;-73
2023/11/25 10:34:13;;;;;;;3.35;3.00;;;;;;;3.27;100.00;95370.63;5105732;27;20030;-73
2023/11/25 10:36:39;;;;;;;3.08;2.35;;;;;;;3.26;100.00;95368.91;5116837;27;20055;-71
2023/11/25 10:39:11;;;;;;;7.97;3.80;;;;;;;3.27;100.00;95359.19;5119025;27;20031;-72
2023/11/25 10:41:43;;;;;;;2.17;2.00;;;;;;;3.21;100.00;95359.63;5104892;28;20051;-71
2023/11/25 10:44:08;;;;;;;2.55;2.33;;;;;;;3.16;100.00;95356.47;5103357;27;20031;-72
2023/11/25 10:46:40;;;;;;;7.93;2.38;;;;;;;3.26;100.00;95362.81;5103391;28;20110;-72
2023/11/25 10:49:07;;;;;;;1.05;0.60;;;;;;;3.28;100.00;95353.81;5100669;28;20024;-73
2023/11/25 10:51:39;;;;;;;0.82;0.82;;;;;;;3.42;100.00;95344.06;5114957;27;20038;-73
2023/11/25 10:54:07;;;;;;;;;;;;;;;3.54;100.00;95341.44;5112640;27;20110;-72
2023/11/25 10:56:35;;;;;;;1.40;1.27;;;;;;;3.48;100.00;95336.56;5106737;27;19915;-73
2023/11/25 10:59:03;;;;;;;1.85;1.30;;;;;;;3.61;100.00;95326.84;5122616;27;20035;-73
2023/11/25 11:01:31;;;;;;;0.88;0.88;;;;;;;3.57;100.00;95335.13;5107926;27;20126;-73
2023/11/25 11:04:15;;;;;;;2.78;2.20;;;;;;;3.61;100.00;95320.72;5101075;27;20047;-73
2023/11/25 11:07:03;;;;;;;11.77;4.25;;;;;;;3.66;100.00;95302.75;5114870;27;20027;-73
2023/11/25 11:09:30;;;;;;;4.05;2.05;;;;;;;3.54;100.00;95272.72;5101404;27;20526;-72
2023/11/25 11:12:06;;;;;;;2.53;2.33;;;;;;;3.90;100.00;95302.78;5116287;27;20030;-74
2023/11/25 11:14:35;;;;;;;2.40;2.25;;;;;;;3.99;100.00;95281.81;5118227;27;20115;-72
2023/11/25 11:17:22;;;;;;;2.25;1.55;;;;;;;4.02;100.00;95284.25;5114584;27;20087;-72
2023/11/25 11:19:50;;;;;;;5.15;2.53;;;;;;;4.04;100.00;95268.25;5129005;27;20027;-73
2023/11/25 11:22:18;;;;;;;2.50;1.95;;;;;;;4.06;100.00;95266.34;5114351;27;20027;-74
2023/11/25 11:25:07;;;;;;;8.32;2.47;;;;;;;4.14;100.00;95258.69;5126089;27;20027;-72
2023/11/25 11:28:05;;;;;;;5.72;3.30;;;;;;;4.07;100.00;95245.06;5107405;27;20030;-73
2023/11/25 11:31:06;;;;;;;0.55;0.55;;;;;;;3.95;100.00;95245.13;5133007;27;20435;-73
2023/11/25 11:33:35;;;;;;;1.45;1.35;;;;;;;3.77;100.00;95215.59;5092868;27;20035;-73